sensor_id;sensor_type;location;lat;lon;timestamp;pressure;altitude;pressure_sealevel;temperature;humidity
21730;BME280;11027;51.030;13.812;2023-05-31T00:02:12;101015.63;;;15.55;50.25
21730;BME280;11027;51.030;13.812;2023-05-31T00:04:37;101015.63;;;15.55;50.50
21730;BME280;11027;51.030;13.812;2023-05-31T00:07:04;101017.50;;;15.55;50.90
21730;BME280;11027;51.030;13.812;2023-05-31T00:09:29;101018.94;;;15.51;50.74
21730;BME280;11027;51.030;13.812;2023-05-31T00:11:54;101025.19;;;15.45;50.86
21730;BME280;11027;51.030;13.812;2023-05-31T00:14:19;101023.88;;;15.40;51.48
21730;BME280;11027;51.030;13.812;2023-05-31T00:16:45;101026.34;;;15.35;51.55
21730;BME280;11027;51.030;13.812;2023-05-31T00:19:10;101028.81;;;15.30;52.00
21730;BME280;11027;51.030;13.812;2023-05-31T00:21:35;101027.50;;;15.26;52.10
21730;BME280;11027;51.030;13.812;2023-05-31T00:24:00;101032.91;;;15.19;51.72
21730;BME280;11027;51.030;13.812;2023-05-31T00:26:26;101032.81;;;15.13;52.07
21730;BME280;11027;51.030;13.812;2023-05-31T00:28:51;101031.19;;;15.04;52.09
21730;BME280;11027;51.030;13.812;2023-05-31T00:31:16;101030.88;;;14.98;52.27
21730;BME280;11027;51.030;13.812;2023-05-31T00:33:44;101034.69;;;14.97;52.58
21730;BME280;11027;51.030;13.812;2023-05-31T00:36:10;101024.06;;;14.94;52.86
21730;BME280;11027;51.030;13.812;2023-05-31T00:38:35;101034.97;;;14.88;52.81
21730;BME280;11027;51.030;13.812;2023-05-31T00:41:00;101040.34;;;14.81;53.08
21730;BME280;11027;51.030;13.812;2023-05-31T00:43:25;101041.09;;;14.75;53.10
21730;BME280;11027;51.030;13.812;2023-05-31T00:45:51;101038.91;;;14.70;53.41
21730;BME280;11027;51.030;13.812;2023-05-31T00:48:16;101038.81;;;14.64;53.62
21730;BME280;11027;51.030;13.812;2023-05-31T00:50:42;101037.47;;;14.59;54.10
21730;BME280;11027;51.030;13.812;2023-05-31T00:53:08;101029.63;;;14.56;54.23
21730;BME280;11027;51.030;13.812;2023-05-31T00:55:34;101038.19;;;14.53;54.16
21730;BME280;11027;51.030;13.812;2023-05-31T00:58:00;101031.50;;;14.56;54.17
21730;BME280;11027;51.030;13.812;2023-05-31T01:00:25;101036.09;;;14.55;54.24
21730;BME280;11027;51.030;13.812;2023-05-31T01:02:51;101038.19;;;14.53;54.18
21730;BME280;11027;51.030;13.812;2023-05-31T01:05:17;101036.19;;;14.47;54.63
21730;BME280;11027;51.030;13.812;2023-05-31T01:07:43;101037.28;;;14.38;54.45
21730;BME280;11027;51.030;13.812;2023-05-31T01:10:09;101039.34;;;14.36;54.86
21730;BME280;11027;51.030;13.812;2023-05-31T01:15:24;101035.28;;;14.32;55.08
21730;BME280;11027;51.030;13.812;2023-05-31T01:18:22;101042.22;;;14.19;55.32
21730;BME280;11027;51.030;13.812;2023-05-31T01:20:52;101038.53;;;14.12;55.42
21730;BME280;11027;51.030;13.812;2023-05-31T01:23:57;101043.69;;;14.07;55.79
21730;BME280;11027;51.030;13.812;2023-05-31T01:26:43;101038.59;;;14.04;55.89
21730;BME280;11027;51.030;13.812;2023-05-31T01:29:14;101038.59;;;14.04;55.62
21730;BME280;11027;51.030;13.812;2023-05-31T01:31:44;101038.94;;;14.01;55.87
21730;BME280;11027;51.030;13.812;2023-05-31T01:34:11;101028.72;;;13.95;55.98
21730;BME280;11027;51.030;13.812;2023-05-31T01:36:36;101039.56;;;13.88;56.34
21730;BME280;11027;51.030;13.812;2023-05-31T01:39:03;101037.38;;;13.84;56.47
21730;BME280;11027;51.030;13.812;2023-05-31T01:41:29;101038.38;;;13.83;56.69
21730;BME280;11027;51.030;13.812;2023-05-31T01:43:55;101039.44;;;13.82;57.16
21730;BME280;11027;51.030;13.812;2023-05-31T01:46:21;101038.06;;;13.77;57.14
21730;BME280;11027;51.030;13.812;2023-05-31T01:48:47;101045.13;;;13.72;57.29
21730;BME280;11027;51.030;13.812;2023-05-31T01:51:14;101045.47;;;13.69;57.30
21730;BME280;11027;51.030;13.812;2023-05-31T01:53:41;101048.78;;;13.64;57.49
21730;BME280;11027;51.030;13.812;2023-05-31T01:56:08;101048.78;;;13.64;57.95
21730;BME280;11027;51.030;13.812;2023-05-31T01:58:35;101045.34;;;13.62;57.88
21730;BME280;11027;51.030;13.812;2023-05-31T02:01:01;101044.84;;;13.58;58.04
21730;BME280;11027;51.030;13.812;2023-05-31T02:03:27;101038.88;;;13.55;58.05
21730;BME280;11027;51.030;13.812;2023-05-31T02:08:23;101038.75;;;13.48;58.28
21730;BME280;11027;51.030;13.812;2023-05-31T02:10:48;101040.97;;;13.45;58.26
21730;BME280;11027;51.030;13.812;2023-05-31T02:13:13;101042.03;;;13.44;58.29
21730;BME280;11027;51.030;13.812;2023-05-31T02:15:39;101048.34;;;13.44;58.36
21730;BME280;11027;51.030;13.812;2023-05-31T02:18:06;101053.69;;;13.37;58.39
21730;BME280;11027;51.030;13.812;2023-05-31T02:20:33;101059.50;;;13.34;58.88
21730;BME280;11027;51.030;13.812;2023-05-31T02:22:59;101052.13;;;13.27;58.98
21730;BME280;11027;51.030;13.812;2023-05-31T02:25:24;101049.59;;;13.25;59.16
21730;BME280;11027;51.030;13.812;2023-05-31T02:27:49;101050.78;;;13.23;59.00
21730;BME280;11027;51.030;13.812;2023-05-31T02:30:15;101052.84;;;13.20;59.18
21730;BME280;11027;51.030;13.812;2023-05-31T02:32:40;101049.63;;;13.17;59.56
21730;BME280;11027;51.030;13.812;2023-05-31T02:35:09;101060.25;;;13.12;59.62
21730;BME280;11027;51.030;13.812;2023-05-31T02:37:36;101053.75;;;13.05;59.85
21730;BME280;11027;51.030;13.812;2023-05-31T02:40:02;101053.94;;;13.03;59.78
21730;BME280;11027;51.030;13.812;2023-05-31T02:42:41;101065.06;;;13.01;59.94
21730;BME280;11027;51.030;13.812;2023-05-31T02:45:10;101057.38;;;12.97;60.08
21730;BME280;11027;51.030;13.812;2023-05-31T02:47:37;101063.34;;;13.00;59.72
21730;BME280;11027;51.030;13.812;2023-05-31T02:50:04;101069.19;;;12.97;59.86
21730;BME280;11027;51.030;13.812;2023-05-31T02:52:30;101060.97;;;12.89;60.20
21730;BME280;11027;51.030;13.812;2023-05-31T02:54:55;101056.38;;;12.90;60.03
21730;BME280;11027;51.030;13.812;2023-05-31T02:57:20;101059.94;;;12.90;60.34
21730;BME280;11027;51.030;13.812;2023-05-31T02:59:46;101073.81;;;12.89;60.84
21730;BME280;11027;51.030;13.812;2023-05-31T03:02:11;101071.09;;;12.89;60.67
21730;BME280;11027;51.030;13.812;2023-05-31T03:04:37;101069.72;;;12.85;60.90
21730;BME280;11027;51.030;13.812;2023-05-31T03:07:02;101070.91;;;12.82;61.10
21730;BME280;11027;51.030;13.812;2023-05-31T03:09:28;101071.25;;;12.79;60.93
21730;BME280;11027;51.030;13.812;2023-05-31T03:11:53;101080.84;;;12.75;60.78
21730;BME280;11027;51.030;13.812;2023-05-31T03:14:18;101072.28;;;12.70;60.96
21730;BME280;11027;51.030;13.812;2023-05-31T03:16:44;101084.59;;;12.66;61.08
21730;BME280;11027;51.030;13.812;2023-05-31T03:19:10;101080.16;;;12.65;61.32
21730;BME280;11027;51.030;13.812;2023-05-31T03:21:36;101081.19;;;12.64;61.42
21730;BME280;11027;51.030;13.812;2023-05-31T03:24:01;101084.28;;;12.60;61.39
21730;BME280;11027;51.030;13.812;2023-05-31T03:26:27;101077.25;;;12.58;61.41
21730;BME280;11027;51.030;13.812;2023-05-31T03:28:52;101083.41;;;12.52;61.57
21730;BME280;11027;51.030;13.812;2023-05-31T03:31:17;101081.53;;;12.52;61.41
21730;BME280;11027;51.030;13.812;2023-05-31T03:33:44;101077.94;;;12.52;61.39
21730;BME280;11027;51.030;13.812;2023-05-31T03:36:09;101081.53;;;12.52;61.37
21730;BME280;11027;51.030;13.812;2023-05-31T03:38:34;101076.06;;;12.52;61.55
21730;BME280;11027;51.030;13.812;2023-05-31T03:41:00;101076.41;;;12.49;61.42
21730;BME280;11027;51.030;13.812;2023-05-31T03:43:25;101078.44;;;12.47;61.39
21730;BME280;11027;51.030;13.812;2023-05-31T03:45:50;101077.78;;;12.45;61.23
21730;BME280;11027;51.030;13.812;2023-05-31T03:48:15;101078.44;;;12.47;61.22
21730;BME280;11027;51.030;13.812;2023-05-31T03:50:41;101073.66;;;12.49;61.35
21730;BME280;11027;51.030;13.812;2023-05-31T03:53:06;101071.97;;;12.56;61.57
21730;BME280;11027;51.030;13.812;2023-05-31T03:55:31;101074.03;;;12.54;61.40
21730;BME280;11027;51.030;13.812;2023-05-31T03:57:58;101076.06;;;12.52;61.30
21730;BME280;11027;51.030;13.812;2023-05-31T04:00:23;101071.63;;;12.43;61.46
21730;BME280;11027;51.030;13.812;2023-05-31T04:02:48;101079.47;;;12.38;61.96
21730;BME280;11027;51.030;13.812;2023-05-31T04:05:13;101074.00;;;12.38;61.82
21730;BME280;11027;51.030;13.812;2023-05-31T04:07:39;101066.84;;;12.37;61.81
21730;BME280;11027;51.030;13.812;2023-05-31T04:10:04;101072.31;;;12.37;62.03
21730;BME280;11027;51.030;13.812;2023-05-31T04:12:30;101072.31;;;12.37;62.14
21730;BME280;11027;51.030;13.812;2023-05-31T04:14:55;101074.00;;;12.38;62.32
21730;BME280;11027;51.030;13.812;2023-05-31T04:17:20;101077.59;;;12.30;62.26
21730;BME280;11027;51.030;13.812;2023-05-31T04:19:46;101088.53;;;12.22;61.89
21730;BME280;11027;51.030;13.812;2023-05-31T04:22:11;101085.28;;;12.18;62.41
21730;BME280;11027;51.030;13.812;2023-05-31T04:24:36;101089.38;;;12.14;62.36
21730;BME280;11027;51.030;13.812;2023-05-31T04:27:01;101088.69;;;12.12;62.48
21730;BME280;11027;51.030;13.812;2023-05-31T04:29:28;101091.41;;;12.12;62.41
21730;BME280;11027;51.030;13.812;2023-05-31T04:31:53;101086.81;;;12.13;62.64
21730;BME280;11027;51.030;13.812;2023-05-31T04:34:18;101091.41;;;12.12;62.42
21730;BME280;11027;51.030;13.812;2023-05-31T04:36:44;101094.84;;;12.14;62.39
21730;BME280;11027;51.030;13.812;2023-05-31T04:39:13;101094.16;;;12.12;62.42
21730;BME280;11027;51.030;13.812;2023-05-31T04:41:40;101096.19;;;12.10;62.46
21730;BME280;11027;51.030;13.812;2023-05-31T04:44:05;101102.66;;;12.09;62.61
21730;BME280;11027;51.030;13.812;2023-05-31T04:46:30;101099.94;;;12.09;62.59
21730;BME280;11027;51.030;13.812;2023-05-31T04:48:57;101106.09;;;12.11;62.39
21730;BME280;11027;51.030;13.812;2023-05-31T04:51:22;101104.03;;;12.13;62.56
21730;BME280;11027;51.030;13.812;2023-05-31T04:53:48;101100.31;;;12.23;62.66
21730;BME280;11027;51.030;13.812;2023-05-31T04:56:13;101098.94;;;12.27;62.50
21730;BME280;11027;51.030;13.812;2023-05-31T04:58:40;101104.06;;;12.30;62.32
21730;BME280;11027;51.030;13.812;2023-05-31T05:01:06;101101.31;;;12.30;61.96
21730;BME280;11027;51.030;13.812;2023-05-31T05:03:32;101098.59;;;12.30;61.53
21730;BME280;11027;51.030;13.812;2023-05-31T05:06:00;101089.38;;;12.31;61.29
21730;BME280;11027;51.030;13.812;2023-05-31T05:08:26;101096.91;;;12.37;61.44
21730;BME280;11027;51.030;13.812;2023-05-31T05:10:52;101088.03;;;12.43;61.26
21730;BME280;11027;51.030;13.812;2023-05-31T05:13:17;101085.97;;;12.45;61.20
21730;BME280;11027;51.030;13.812;2023-05-31T05:15:42;101093.13;;;12.46;60.96
21730;BME280;11027;51.030;13.812;2023-05-31T05:18:07;101091.78;;;12.50;60.77
21730;BME280;11027;51.030;13.812;2023-05-31T05:20:33;101089.75;;;12.52;60.99
21730;BME280;11027;51.030;13.812;2023-05-31T05:22:58;101102.72;;;12.58;60.69
21730;BME280;11027;51.030;13.812;2023-05-31T05:25:27;101087.50;;;12.64;60.82
21730;BME280;11027;51.030;13.812;2023-05-31T05:27:52;101096.22;;;12.68;60.81
21730;BME280;11027;51.030;13.812;2023-05-31T05:30:17;101096.22;;;12.68;60.67
21730;BME280;11027;51.030;13.812;2023-05-31T05:32:43;101099.09;;;12.66;60.48
21730;BME280;11027;51.030;13.812;2023-05-31T05:35:08;101097.94;;;12.69;60.59
21730;BME280;11027;51.030;13.812;2023-05-31T05:37:33;101093.81;;;12.73;60.71
21730;BME280;11027;51.030;13.812;2023-05-31T05:39:59;101098.59;;;12.79;60.80
21730;BME280;11027;51.030;13.812;2023-05-31T05:42:25;101103.38;;;12.85;60.67
21730;BME280;11027;51.030;13.812;2023-05-31T05:44:51;101105.06;;;12.94;60.61
21730;BME280;11027;51.030;13.812;2023-05-31T05:47:16;101094.13;;;12.94;60.08
21730;BME280;11027;51.030;13.812;2023-05-31T05:49:41;101091.38;;;12.94;59.95
21730;BME280;11027;51.030;13.812;2023-05-31T05:52:07;101101.16;;;12.97;59.78
21730;BME280;11027;51.030;13.812;2023-05-31T05:54:32;101093.09;;;13.04;59.87
21730;BME280;11027;51.030;13.812;2023-05-31T05:56:57;101093.41;;;13.09;59.97
21730;BME280;11027;51.030;13.812;2023-05-31T05:59:22;101095.47;;;13.15;59.74
21730;BME280;11027;51.030;13.812;2023-05-31T06:01:48;101093.72;;;13.22;59.74
21730;BME280;11027;51.030;13.812;2023-05-31T06:04:13;101105.72;;;13.29;59.92
21730;BME280;11027;51.030;13.812;2023-05-31T06:06:38;101099.88;;;13.32;59.58
21730;BME280;11027;51.030;13.812;2023-05-31T06:09:03;101103.28;;;13.34;59.39
21730;BME280;11027;51.030;13.812;2023-05-31T06:11:29;101096.59;;;13.37;59.09
21730;BME280;11027;51.030;13.812;2023-05-31T06:13:54;101099.69;;;13.42;59.05
21730;BME280;11027;51.030;13.812;2023-05-31T06:16:21;101103.59;;;13.48;58.77
21730;BME280;11027;51.030;13.812;2023-05-31T06:18:47;101095.69;;;13.53;58.63
21730;BME280;11027;51.030;13.812;2023-05-31T06:21:12;101093.28;;;13.58;58.88
21730;BME280;11027;51.030;13.812;2023-05-31T06:23:38;101096.34;;;13.63;58.67
21730;BME280;11027;51.030;13.812;2023-05-31T06:26:03;101092.22;;;13.67;58.73
21730;BME280;11027;51.030;13.812;2023-05-31T06:28:28;101096.97;;;13.73;58.71
21730;BME280;11027;51.030;13.812;2023-05-31T06:30:54;101092.84;;;13.77;58.38
21730;BME280;11027;51.030;13.812;2023-05-31T06:33:20;101100.38;;;13.84;58.31
21730;BME280;11027;51.030;13.812;2023-05-31T06:35:46;101091.09;;;13.85;58.56
21730;BME280;11027;51.030;13.812;2023-05-31T06:38:11;101093.50;;;13.88;58.07
21730;BME280;11027;51.030;13.812;2023-05-31T06:40:42;101087.28;;;13.94;58.16
21730;BME280;11027;51.030;13.812;2023-05-31T06:43:08;101090.34;;;13.99;58.06
21730;BME280;11027;51.030;13.812;2023-05-31T06:45:33;101094.25;;;14.05;57.82
21730;BME280;11027;51.030;13.812;2023-05-31T06:47:59;101090.94;;;14.09;57.59
21730;BME280;11027;51.030;13.812;2023-05-31T06:50:24;101081.31;;;14.13;57.84
21730;BME280;11027;51.030;13.812;2023-05-31T06:52:49;101092.44;;;14.20;57.50
21730;BME280;11027;51.030;13.812;2023-05-31T06:55:14;101083.66;;;14.25;57.35
21730;BME280;11027;51.030;13.812;2023-05-31T06:57:40;101086.69;;;14.30;57.44
21730;BME280;11027;51.030;13.812;2023-05-31T07:00:06;101083.41;;;14.34;57.14
21730;BME280;11027;51.030;13.812;2023-05-31T07:02:32;101083.88;;;14.38;56.90
21730;BME280;11027;51.030;13.812;2023-05-31T07:04:57;101079.72;;;14.42;56.78
21730;BME280;11027;51.030;13.812;2023-05-31T07:07:25;101079.38;;;14.45;56.70
21730;BME280;11027;51.030;13.812;2023-05-31T07:09:50;101080.53;;;14.51;56.59
21730;BME280;11027;51.030;13.812;2023-05-31T07:12:16;101083.44;;;14.57;56.41
21730;BME280;11027;51.030;13.812;2023-05-31T07:14:41;101080.78;;;14.64;56.56
21730;BME280;11027;51.030;13.812;2023-05-31T07:17:06;101076.09;;;14.73;56.13
21730;BME280;11027;51.030;13.812;2023-05-31T07:19:32;101071.94;;;14.77;56.16
21730;BME280;11027;51.030;13.812;2023-05-31T07:21:57;101079.59;;;14.82;55.88
21730;BME280;11027;51.030;13.812;2023-05-31T07:24:22;101076.28;;;14.86;55.76
21730;BME280;11027;51.030;13.812;2023-05-31T07:26:47;101069.38;;;14.90;55.19
21730;BME280;11027;51.030;13.812;2023-05-31T07:29:13;101060.41;;;14.96;55.01
21730;BME280;11027;51.030;13.812;2023-05-31T07:31:38;101057.56;;;15.05;54.72
21730;BME280;11027;51.030;13.812;2023-05-31T07:34:03;101062.34;;;15.11;54.75
21730;BME280;11027;51.030;13.812;2023-05-31T07:36:28;101057.13;;;15.16;54.58
21730;BME280;11027;51.030;13.812;2023-05-31T07:38:54;101055.69;;;15.20;54.38
21730;BME280;11027;51.030;13.812;2023-05-31T07:41:19;101051.53;;;15.24;54.21
21730;BME280;11027;51.030;13.812;2023-05-31T07:43:45;101056.25;;;15.30;54.13
21730;BME280;11027;51.030;13.812;2023-05-31T07:46:12;101041.59;;;15.38;53.78
21730;BME280;11027;51.030;13.812;2023-05-31T07:48:38;101040.16;;;15.42;53.61
21730;BME280;11027;51.030;13.812;2023-05-31T07:51:03;101035.81;;;15.48;53.77
21730;BME280;11027;51.030;13.812;2023-05-31T07:53:29;101037.84;;;15.60;53.77
21730;BME280;11027;51.030;13.812;2023-05-31T07:55:54;101026.19;;;15.73;53.43
21730;BME280;11027;51.030;13.812;2023-05-31T07:58:19;101027.13;;;15.80;53.38
21730;BME280;11027;51.030;13.812;2023-05-31T08:00:45;101024.00;;;15.84;53.27
21730;BME280;11027;51.030;13.812;2023-05-31T08:03:10;101012.25;;;15.90;53.12
21730;BME280;11027;51.030;13.812;2023-05-31T08:05:35;101017.31;;;15.93;53.01
21730;BME280;11027;51.030;13.812;2023-05-31T08:08:01;101011.06;;;15.99;53.04
21730;BME280;11027;51.030;13.812;2023-05-31T08:10:27;101007.72;;;16.04;52.83
21730;BME280;11027;51.030;13.812;2023-05-31T08:12:54;101009.00;;;16.08;52.63
21730;BME280;11027;51.030;13.812;2023-05-31T08:15:20;101004.44;;;16.15;52.73
21730;BME280;11027;51.030;13.812;2023-05-31T08:17:45;101004.78;;;16.27;52.88
21730;BME280;11027;51.030;13.812;2023-05-31T08:20:12;100990.22;;;16.33;52.96
21730;BME280;11027;51.030;13.812;2023-05-31T08:22:44;101002.13;;;16.40;53.06
21730;BME280;11027;51.030;13.812;2023-05-31T08:25:10;100997.94;;;16.44;52.90
21730;BME280;11027;51.030;13.812;2023-05-31T08:27:38;100996.09;;;16.51;52.74
21730;BME280;11027;51.030;13.812;2023-05-31T08:30:05;100999.53;;;16.60;52.63
21730;BME280;11027;51.030;13.812;2023-05-31T08:32:31;100985.38;;;16.63;51.93
21730;BME280;11027;51.030;13.812;2023-05-31T08:34:56;100992.00;;;16.69;51.63
21730;BME280;11027;51.030;13.812;2023-05-31T08:37:22;100989.28;;;16.75;50.98
21730;BME280;11027;51.030;13.812;2023-05-31T08:39:47;100988.94;;;16.85;50.77
21730;BME280;11027;51.030;13.812;2023-05-31T08:42:15;100988.97;;;16.92;50.50
21730;BME280;11027;51.030;13.812;2023-05-31T08:44:42;100985.63;;;16.96;50.42
21730;BME280;11027;51.030;13.812;2023-05-31T08:47:12;100980.56;;;17.00;50.50
21730;BME280;11027;51.030;13.812;2023-05-31T08:49:40;100975.50;;;17.04;50.33
21730;BME280;11027;51.030;13.812;2023-05-31T08:52:06;100983.56;;;17.05;49.70
21730;BME280;11027;51.030;13.812;2023-05-31T08:54:34;100978.50;;;17.09;49.57
21730;BME280;11027;51.030;13.812;2023-05-31T08:57:00;100974.06;;;17.14;49.35
21730;BME280;11027;51.030;13.812;2023-05-31T08:59:27;100970.94;;;17.24;48.96
21730;BME280;11027;51.030;13.812;2023-05-31T09:01:53;100966.16;;;17.39;48.59
21730;BME280;11027;51.030;13.812;2023-05-31T09:04:19;100968.50;;;17.49;48.34
21730;BME280;11027;51.030;13.812;2023-05-31T09:06:45;100964.06;;;17.55;48.74
21730;BME280;11027;51.030;13.812;2023-05-31T09:09:11;100975.72;;;17.57;48.56
21730;BME280;11027;51.030;13.812;2023-05-31T09:11:36;100961.75;;;17.65;48.03
21730;BME280;11027;51.030;13.812;2023-05-31T09:14:06;100965.47;;;17.86;47.45
21730;BME280;11027;51.030;13.812;2023-05-31T09:16:33;100957.63;;;17.96;47.38
21730;BME280;11027;51.030;13.812;2023-05-31T09:19:00;100959.97;;;18.06;47.10
21730;BME280;11027;51.030;13.812;2023-05-31T09:21:26;100960.59;;;18.14;46.52
21730;BME280;11027;51.030;13.812;2023-05-31T09:23:53;100957.84;;;18.21;45.94
21730;BME280;11027;51.030;13.812;2023-05-31T09:26:19;100957.00;;;18.21;46.36
21730;BME280;11027;51.030;13.812;2023-05-31T09:28:48;100958.47;;;18.16;45.97
21730;BME280;11027;51.030;13.812;2023-05-31T09:31:14;100946.59;;;18.23;44.98
21730;BME280;11027;51.030;13.812;2023-05-31T09:33:43;100942.56;;;18.32;44.15
21730;BME280;11027;51.030;13.812;2023-05-31T09:36:09;100941.91;;;18.43;42.97
21730;BME280;11027;51.030;13.812;2023-05-31T09:38:36;100946.16;;;18.52;42.73
21730;BME280;11027;51.030;13.812;2023-05-31T09:41:17;100924.91;;;18.59;42.52
21730;BME280;11027;51.030;13.812;2023-05-31T09:43:44;100931.03;;;18.68;42.17
21730;BME280;11027;51.030;13.812;2023-05-31T09:46:17;100931.03;;;18.75;42.41
21730;BME280;11027;51.030;13.812;2023-05-31T09:48:44;100925.31;;;18.83;41.67
21730;BME280;11027;51.030;13.812;2023-05-31T09:51:11;100935.03;;;18.92;42.00
21730;BME280;11027;51.030;13.812;2023-05-31T09:53:39;100919.75;;;19.03;42.13
21730;BME280;11027;51.030;13.812;2023-05-31T09:56:08;100919.69;;;19.10;41.97
21730;BME280;11027;51.030;13.812;2023-05-31T09:58:34;100918.81;;;19.16;41.43
21730;BME280;11027;51.030;13.812;2023-05-31T10:00:59;100918.56;;;19.24;41.55
21730;BME280;11027;51.030;13.812;2023-05-31T10:03:27;100919.56;;;19.36;41.48
21730;BME280;11027;51.030;13.812;2023-05-31T10:05:53;100924.47;;;19.41;41.16
21730;BME280;11027;51.030;13.812;2023-05-31T10:08:18;100913.16;;;19.43;41.11
21730;BME280;11027;51.030;13.812;2023-05-31T10:10:44;100918.25;;;19.46;40.60
21730;BME280;11027;51.030;13.812;2023-05-31T10:13:11;100907.63;;;19.43;41.05
21730;BME280;11027;51.030;13.812;2023-05-31T10:15:39;100908.31;;;19.38;40.65
21730;BME280;11027;51.030;13.812;2023-05-31T10:18:15;100902.81;;;19.31;41.02
21730;BME280;11027;51.030;13.812;2023-05-31T10:20:47;100905.13;;;19.34;41.24
21730;BME280;11027;51.030;13.812;2023-05-31T10:23:19;100903.88;;;19.37;41.14
21730;BME280;11027;51.030;13.812;2023-05-31T10:25:52;100897.84;;;19.47;40.46
21730;BME280;11027;51.030;13.812;2023-05-31T10:28:21;100902.19;;;19.61;40.52
21730;BME280;11027;51.030;13.812;2023-05-31T10:30:51;100903.25;;;19.73;40.49
21730;BME280;11027;51.030;13.812;2023-05-31T10:33:17;100890.19;;;19.81;41.04
21730;BME280;11027;51.030;13.812;2023-05-31T10:35:45;100895.91;;;19.86;40.84
21730;BME280;11027;51.030;13.812;2023-05-31T10:38:11;100892.88;;;19.94;40.74
21730;BME280;11027;51.030;13.812;2023-05-31T10:40:52;100886.88;;;19.97;40.35
21730;BME280;11027;51.030;13.812;2023-05-31T10:45:51;100889.81;;;20.02;40.56
21730;BME280;11027;51.030;13.812;2023-05-31T10:48:25;100893.22;;;20.04;40.64
21730;BME280;11027;51.030;13.812;2023-05-31T10:53:20;100876.63;;;20.04;39.92
21730;BME280;11027;51.030;13.812;2023-05-31T10:55:46;100870.91;;;19.99;39.63
21730;BME280;11027;51.030;13.812;2023-05-31T10:58:28;100868.75;;;20.01;39.32
21730;BME280;11027;51.030;13.812;2023-05-31T11:00:57;100866.63;;;20.03;39.75
21730;BME280;11027;51.030;13.812;2023-05-31T11:03:24;100856.78;;;20.07;40.00
21730;BME280;11027;51.030;13.812;2023-05-31T11:06:00;100865.50;;;20.11;39.83
21730;BME280;11027;51.030;13.812;2023-05-31T11:08:27;100851.75;;;20.23;38.85
21730;BME280;11027;51.030;13.812;2023-05-31T11:10:52;100852.91;;;20.33;38.84
21730;BME280;11027;51.030;13.812;2023-05-31T11:13:17;100856.31;;;20.35;38.69
21730;BME280;11027;51.030;13.812;2023-05-31T11:15:45;100862.41;;;20.44;38.07
21730;BME280;11027;51.030;13.812;2023-05-31T11:18:23;100860.19;;;20.53;38.28
21730;BME280;11027;51.030;13.812;2023-05-31T11:20:51;100856.44;;;20.66;38.42
21730;BME280;11027;51.030;13.812;2023-05-31T11:26:14;100848.28;;;20.89;37.94
21730;BME280;11027;51.030;13.812;2023-05-31T11:29:01;100846.25;;;20.96;38.30
21730;BME280;11027;51.030;13.812;2023-05-31T11:34:18;100841.75;;;21.14;38.02
21730;BME280;11027;51.030;13.812;2023-05-31T11:36:44;100838.66;;;21.22;38.21
21730;BME280;11027;51.030;13.812;2023-05-31T11:39:09;100847.88;;;21.34;38.85
21730;BME280;11027;51.030;13.812;2023-05-31T11:41:36;100840.94;;;21.44;39.04
21730;BME280;11027;51.030;13.812;2023-05-31T11:44:01;100830.13;;;21.54;38.90
21730;BME280;11027;51.030;13.812;2023-05-31T11:46:27;100825.69;;;21.65;39.14
21730;BME280;11027;51.030;13.812;2023-05-31T11:48:53;100824.63;;;21.77;39.01
21730;BME280;11027;51.030;13.812;2023-05-31T11:51:18;100822.72;;;21.90;38.77
21730;BME280;11027;51.030;13.812;2023-05-31T11:53:44;100822.47;;;22.03;38.29
21730;BME280;11027;51.030;13.812;2023-05-31T11:56:09;100822.25;;;22.16;37.89
21730;BME280;11027;51.030;13.812;2023-05-31T11:58:37;100808.84;;;22.25;37.07
21730;BME280;11027;51.030;13.812;2023-05-31T12:01:02;100811.25;;;22.33;37.18
21730;BME280;11027;51.030;13.812;2023-05-31T12:03:28;100814.03;;;22.45;36.98
21730;BME280;11027;51.030;13.812;2023-05-31T12:05:57;100806.53;;;22.57;34.91
21730;BME280;11027;51.030;13.812;2023-05-31T12:08:24;100806.25;;;22.71;34.58
21730;BME280;11027;51.030;13.812;2023-05-31T12:10:50;100805.47;;;22.87;34.31
21730;BME280;11027;51.030;13.812;2023-05-31T12:13:16;100797.22;;;22.92;33.15
21730;BME280;11027;51.030;13.812;2023-05-31T12:15:41;100807.38;;;22.99;33.27
21730;BME280;11027;51.030;13.812;2023-05-31T12:18:07;100794.31;;;23.11;34.07
21730;BME280;11027;51.030;13.812;2023-05-31T12:20:33;100797.13;;;23.28;33.84
21730;BME280;11027;51.030;13.812;2023-05-31T12:23:12;100799.31;;;23.43;33.78
21730;BME280;11027;51.030;13.812;2023-05-31T12:25:43;100789.97;;;23.49;32.31
21730;BME280;11027;51.030;13.812;2023-05-31T12:28:09;100796.81;;;23.58;32.76
21730;BME280;11027;51.030;13.812;2023-05-31T12:30:42;100791.00;;;23.76;32.93
21730;BME280;11027;51.030;13.812;2023-05-31T12:33:09;100775.22;;;23.99;33.20
21730;BME280;11027;51.030;13.812;2023-05-31T12:35:42;100786.66;;;24.20;32.90
21730;BME280;11027;51.030;13.812;2023-05-31T12:38:08;100775.25;;;24.38;32.56
21730;BME280;11027;51.030;13.812;2023-05-31T12:40:37;100776.31;;;24.54;31.91
21730;BME280;11027;51.030;13.812;2023-05-31T12:43:03;100773.97;;;24.68;31.22
21730;BME280;11027;51.030;13.812;2023-05-31T12:45:29;100781.94;;;24.81;30.77
21730;BME280;11027;51.030;13.812;2023-05-31T12:47:58;100776.84;;;25.00;30.51
21730;BME280;11027;51.030;13.812;2023-05-31T12:50:24;100776.66;;;25.07;29.85
21730;BME280;11027;51.030;13.812;2023-05-31T12:52:56;100772.84;;;25.18;30.14
21730;BME280;11027;51.030;13.812;2023-05-31T12:55:22;100763.63;;;25.40;29.91